ARG1493 SAWH-SAWC
Flight info
| Callsign | ARG1493 |
|---|---|
| Flight time | 1h 10m |
| Altitude | 36000 |
| Route | GRA2B GRA UW42 GAL UW52 DEVIS DEVIS2Q |
| Aircraft | B738/M-SDE2E3FGHIRWXY/LB1 |
Departure
| Time | 2026-04-16 20:08 |
|---|---|
| Airport | Ushuaia - Malvinas Argentinas International Airport (SAWH) |
Arrival
| Time | 2026-04-16 21:19 |
|---|---|
| Airport | El Calafate - Commander Armando Tola International Airport (SAWC) |
| Time | Latitude | Longitude | Altitude | Speed | Heading |
|---|---|---|---|---|---|
| 2026-04-16 19:51 | -54.84029 | -68.31258 | 76 ft | 0 kts | 11° |
| 2026-04-16 19:56 | -54.84032 | -68.31259 | 76 ft | 2 kts | 11° |
| 2026-04-16 19:56 | -54.84050 | -68.31265 | 67 ft | 3 kts | 11° |
| 2026-04-16 19:56 | -54.84070 | -68.31272 | 70 ft | 3 kts | 12° |
| 2026-04-16 19:56 | -54.84090 | -68.31279 | 65 ft | 3 kts | 12° |
| 2026-04-16 19:57 | -54.84104 | -68.31284 | 71 ft | 1 kts | 13° |
| 2026-04-16 19:57 | -54.84104 | -68.31285 | 71 ft | 1 kts | 13° |
| 2026-04-16 19:59 | -54.84104 | -68.31283 | 71 ft | 0 kts | 20° |
| 2026-04-16 19:59 | -54.84102 | -68.31276 | 71 ft | 2 kts | 64° |
| 2026-04-16 20:00 | -54.84092 | -68.31133 | 76 ft | 6 kts | 86° |
| 2026-04-16 20:00 | -54.84089 | -68.31057 | 76 ft | 6 kts | 90° |
| 2026-04-16 20:00 | -54.84109 | -68.30996 | 67 ft | 6 kts | 148° |
| 2026-04-16 20:00 | -54.84162 | -68.30979 | 71 ft | 10 kts | 175° |
| 2026-04-16 20:01 | -54.84172 | -68.30977 | 69 ft | 0 kts | 175° |
| 2026-04-16 20:01 | -54.84214 | -68.30972 | 66 ft | 12 kts | 176° |
| 2026-04-16 20:01 | -54.84293 | -68.30964 | 58 ft | 9 kts | 177° |
| 2026-04-16 20:01 | -54.84362 | -68.30931 | 59 ft | 11 kts | 135° |
| 2026-04-16 20:02 | -54.84378 | -68.30810 | 61 ft | 10 kts | 86° |
| 2026-04-16 20:02 | -54.84373 | -68.30683 | 61 ft | 11 kts | 85° |
| 2026-04-16 20:02 | -54.84369 | -68.30548 | 61 ft | 11 kts | 86° |
| 2026-04-16 20:02 | -54.84364 | -68.30420 | 61 ft | 11 kts | 86° |
| 2026-04-16 20:03 | -54.84359 | -68.30293 | 61 ft | 10 kts | 86° |
| 2026-04-16 20:03 | -54.84354 | -68.30170 | 61 ft | 10 kts | 85° |
| 2026-04-16 20:03 | -54.84349 | -68.30042 | 60 ft | 12 kts | 86° |
| 2026-04-16 20:03 | -54.84345 | -68.29938 | 61 ft | 13 kts | 86° |
| 2026-04-16 20:04 | -54.84341 | -68.29830 | 61 ft | 15 kts | 86° |
| 2026-04-16 20:04 | -54.84330 | -68.29659 | 61 ft | 14 kts | 89° |
| 2026-04-16 20:04 | -54.84320 | -68.29498 | 58 ft | 13 kts | 83° |
| 2026-04-16 20:04 | -54.84319 | -68.29339 | 61 ft | 13 kts | 90° |
| 2026-04-16 20:05 | -54.84314 | -68.29170 | 59 ft | 14 kts | 85° |
| 2026-04-16 20:05 | -54.84309 | -68.29005 | 54 ft | 13 kts | 87° |
| 2026-04-16 20:05 | -54.84302 | -68.28835 | 61 ft | 14 kts | 86° |
| 2026-04-16 20:05 | -54.84295 | -68.28611 | 57 ft | 23 kts | 86° |
| 2026-04-16 20:06 | -54.84284 | -68.28342 | 61 ft | 22 kts | 85° |
| 2026-04-16 20:06 | -54.84273 | -68.28080 | 61 ft | 21 kts | 86° |
| 2026-04-16 20:06 | -54.84263 | -68.27826 | 56 ft | 21 kts | 86° |
| 2026-04-16 20:06 | -54.84249 | -68.27580 | 55 ft | 20 kts | 81° |
| 2026-04-16 20:07 | -54.84218 | -68.27383 | 57 ft | 14 kts | 79° |
| 2026-04-16 20:07 | -54.84231 | -68.27348 | 56 ft | 3 kts | 195° |
| 2026-04-16 20:07 | -54.84243 | -68.27382 | 38 ft | 5 kts | 251° |
| 2026-04-16 20:07 | -54.84251 | -68.27500 | 48 ft | 25 kts | 265° |
| 2026-04-16 20:08 | -54.84279 | -68.28232 | 58 ft | 96 kts | 266° |
| 2026-04-16 20:08 | -54.84340 | -68.29749 | 53 ft | 154 kts | 265° |
| 2026-04-16 20:08 | -54.84373 | -68.31740 | 529 ft | 169 kts | 267° |
| 2026-04-16 20:08 | -54.84476 | -68.33781 | 1286 ft | 174 kts | 263° |
| 2026-04-16 20:09 | -54.84925 | -68.35794 | 1863 ft | 187 kts | 229° |
| 2026-04-16 20:09 | -54.86054 | -68.37012 | 2456 ft | 199 kts | 193° |
| 2026-04-16 20:09 | -54.87429 | -68.36872 | 3152 ft | 203 kts | 158° |
| 2026-04-16 20:09 | -54.88524 | -68.35354 | 3801 ft | 209 kts | 123° |
| 2026-04-16 20:10 | -54.88964 | -68.32926 | 4242 ft | 216 kts | 88° |
| 2026-04-16 20:10 | -54.88662 | -68.30390 | 4805 ft | 216 kts | 69° |
| 2026-04-16 20:10 | -54.88166 | -68.27895 | 5355 ft | 220 kts | 71° |
| 2026-04-16 20:10 | -54.87782 | -68.25285 | 5816 ft | 229 kts | 73° |
| 2026-04-16 20:11 | -54.87383 | -68.22471 | 5976 ft | 253 kts | 73° |
| 2026-04-16 20:11 | -54.86923 | -68.19376 | 6242 ft | 274 kts | 72° |
| 2026-04-16 20:11 | -54.86423 | -68.16120 | 6816 ft | 283 kts | 71° |
| 2026-04-16 20:11 | -54.86080 | -68.12717 | 7482 ft | 295 kts | 90° |
| 2026-04-16 20:12 | -54.86545 | -68.09182 | 8163 ft | 304 kts | 101° |
| 2026-04-16 20:12 | -54.86624 | -68.05621 | 8732 ft | 298 kts | 68° |
| 2026-04-16 20:12 | -54.85645 | -68.02620 | 9400 ft | 280 kts | 34° |
| 2026-04-16 20:12 | -54.84067 | -68.00836 | 10153 ft | 268 kts | 19° |
| 2026-04-16 20:13 | -54.82387 | -67.99537 | 10885 ft | 264 kts | 11° |
| 2026-04-16 20:13 | -54.80638 | -67.98411 | 11503 ft | 269 kts | 12° |
| 2026-04-16 20:13 | -54.78882 | -67.97263 | 12402 ft | 270 kts | 11° |
| 2026-04-16 20:13 | -54.77118 | -67.96080 | 13174 ft | 274 kts | 11° |
| 2026-04-16 20:14 | -54.75346 | -67.94883 | 13956 ft | 272 kts | 11° |
| 2026-04-16 20:14 | -54.73584 | -67.93697 | 14816 ft | 271 kts | 10° |
| 2026-04-16 20:14 | -54.71837 | -67.92511 | 15693 ft | 268 kts | 9° |
| 2026-04-16 20:14 | -54.70103 | -67.91330 | 16441 ft | 269 kts | 9° |
| 2026-04-16 20:15 | -54.68350 | -67.90139 | 17162 ft | 271 kts | 9° |
| 2026-04-16 20:15 | -54.66571 | -67.88985 | 17739 ft | 275 kts | 8° |
| 2026-04-16 20:15 | -54.64791 | -67.87768 | 18417 ft | 275 kts | 9° |
| 2026-04-16 20:15 | -54.63014 | -67.86538 | 19038 ft | 277 kts | 9° |
| 2026-04-16 20:16 | -54.61216 | -67.85310 | 19683 ft | 279 kts | 9° |
| 2026-04-16 20:16 | -54.59410 | -67.84073 | 20383 ft | 279 kts | 9° |
| 2026-04-16 20:16 | -54.57600 | -67.82838 | 21040 ft | 280 kts | 9° |
| 2026-04-16 20:16 | -54.55777 | -67.81602 | 21652 ft | 282 kts | 9° |
| 2026-04-16 20:17 | -54.53945 | -67.80364 | 22263 ft | 284 kts | 9° |
| 2026-04-16 20:17 | -54.52075 | -67.79407 | 22836 ft | 278 kts | 2° |
| 2026-04-16 20:17 | -54.50173 | -67.78919 | 23219 ft | 276 kts | 356° |
| 2026-04-16 20:17 | -54.48258 | -67.78768 | 23713 ft | 276 kts | 355° |
| 2026-04-16 20:18 | -54.46342 | -67.78658 | 24263 ft | 275 kts | 355° |
| 2026-04-16 20:18 | -54.44428 | -67.78555 | 24795 ft | 275 kts | 354° |
| 2026-04-16 20:18 | -54.42511 | -67.78451 | 25296 ft | 277 kts | 354° |
| 2026-04-16 20:18 | -54.40574 | -67.78345 | 25735 ft | 279 kts | 354° |
| 2026-04-16 20:19 | -54.38628 | -67.78234 | 26234 ft | 280 kts | 354° |
| 2026-04-16 20:19 | -54.36683 | -67.78120 | 26767 ft | 280 kts | 354° |
| 2026-04-16 20:19 | -54.34745 | -67.78004 | 27366 ft | 277 kts | 354° |
| 2026-04-16 20:19 | -54.32837 | -67.77887 | 28031 ft | 272 kts | 354° |
| 2026-04-16 20:20 | -54.30956 | -67.77772 | 28654 ft | 269 kts | 354° |
| 2026-04-16 20:20 | -54.29092 | -67.77660 | 29212 ft | 267 kts | 353° |
| 2026-04-16 20:20 | -54.27240 | -67.77549 | 29695 ft | 265 kts | 353° |
| 2026-04-16 20:20 | -54.25400 | -67.77439 | 30079 ft | 265 kts | 353° |
| 2026-04-16 20:21 | -54.23555 | -67.77331 | 30448 ft | 265 kts | 353° |
| 2026-04-16 20:21 | -54.21709 | -67.77221 | 30814 ft | 265 kts | 353° |
| 2026-04-16 20:21 | -54.19865 | -67.77111 | 31203 ft | 264 kts | 353° |
| 2026-04-16 20:21 | -54.18030 | -67.77001 | 31579 ft | 264 kts | 353° |
| 2026-04-16 20:22 | -54.16195 | -67.76892 | 31922 ft | 264 kts | 353° |
| 2026-04-16 20:22 | -54.14357 | -67.76784 | 32044 ft | 267 kts | 353° |
| 2026-04-16 20:22 | -54.12474 | -67.76678 | 32163 ft | 273 kts | 353° |
| 2026-04-16 20:22 | -54.10580 | -67.76564 | 32572 ft | 270 kts | 353° |
| 2026-04-16 20:23 | -54.08710 | -67.76449 | 32966 ft | 268 kts | 353° |
| 2026-04-16 20:23 | -54.06842 | -67.76336 | 33237 ft | 269 kts | 353° |
| 2026-04-16 20:23 | -54.04965 | -67.76225 | 33494 ft | 270 kts | 353° |
| 2026-04-16 20:23 | -54.03088 | -67.76113 | 33736 ft | 270 kts | 353° |
| 2026-04-16 20:24 | -54.01206 | -67.76002 | 33924 ft | 272 kts | 354° |
| 2026-04-16 20:24 | -53.99337 | -67.75892 | 34120 ft | 273 kts | 354° |
| 2026-04-16 20:24 | -53.97416 | -67.75777 | 34359 ft | 273 kts | 354° |
| 2026-04-16 20:24 | -53.95522 | -67.75664 | 34606 ft | 272 kts | 354° |
| 2026-04-16 20:25 | -53.93650 | -67.75554 | 34774 ft | 274 kts | 354° |
| 2026-04-16 20:25 | -53.91741 | -67.75441 | 34930 ft | 275 kts | 354° |
| 2026-04-16 20:25 | -53.89818 | -67.75328 | 35093 ft | 277 kts | 354° |
| 2026-04-16 20:25 | -53.87886 | -67.75214 | 35263 ft | 279 kts | 354° |
| 2026-04-16 20:26 | -53.85941 | -67.75099 | 35389 ft | 281 kts | 354° |
| 2026-04-16 20:26 | -53.83966 | -67.74985 | 35363 ft | 287 kts | 354° |
| 2026-04-16 20:26 | -53.81956 | -67.74868 | 35387 ft | 291 kts | 354° |
| 2026-04-16 20:26 | -53.79915 | -67.74814 | 35382 ft | 293 kts | 349° |
| 2026-04-16 20:27 | -53.77902 | -67.75315 | 35399 ft | 294 kts | 345° |
| 2026-04-16 20:27 | -53.75894 | -67.76080 | 35397 ft | 298 kts | 341° |
| 2026-04-16 20:27 | -53.72015 | -67.78746 | 35393 ft | 306 kts | 334° |
| 2026-04-16 20:28 | -53.68083 | -67.81805 | 35398 ft | 316 kts | 334° |
| 2026-04-16 20:28 | -53.64022 | -67.84957 | 35396 ft | 326 kts | 334° |
| 2026-04-16 20:29 | -53.59837 | -67.88181 | 35394 ft | 335 kts | 334° |
| 2026-04-16 20:29 | -53.55536 | -67.91478 | 35389 ft | 344 kts | 334° |
| 2026-04-16 20:30 | -53.51122 | -67.94851 | 35391 ft | 352 kts | 334° |
| 2026-04-16 20:30 | -53.46607 | -67.98290 | 35397 ft | 360 kts | 334° |
| 2026-04-16 20:31 | -53.42781 | -68.01199 | 35390 ft | 366 kts | 334° |
| 2026-04-16 20:31 | -53.38106 | -68.04745 | 35386 ft | 371 kts | 334° |
| 2026-04-16 20:32 | -53.33391 | -68.08312 | 35380 ft | 373 kts | 334° |
| 2026-04-16 20:32 | -53.28685 | -68.11863 | 35381 ft | 369 kts | 334° |
| 2026-04-16 20:33 | -53.24017 | -68.15378 | 35388 ft | 367 kts | 334° |
| 2026-04-16 20:33 | -53.19368 | -68.18870 | 35390 ft | 366 kts | 334° |
| 2026-04-16 20:34 | -53.14731 | -68.22345 | 35392 ft | 365 kts | 334° |
| 2026-04-16 20:34 | -53.10093 | -68.25813 | 35392 ft | 366 kts | 334° |
| 2026-04-16 20:35 | -53.05447 | -68.29279 | 35393 ft | 366 kts | 334° |
| 2026-04-16 20:35 | -53.00792 | -68.32743 | 35401 ft | 367 kts | 334° |
| 2026-04-16 20:36 | -52.96130 | -68.36204 | 35398 ft | 367 kts | 334° |
| 2026-04-16 20:36 | -52.91466 | -68.39659 | 35397 ft | 368 kts | 334° |
| 2026-04-16 20:37 | -52.86795 | -68.43112 | 35392 ft | 368 kts | 334° |
| 2026-04-16 20:37 | -52.82151 | -68.46536 | 35393 ft | 368 kts | 334° |
| 2026-04-16 20:38 | -52.77476 | -68.49974 | 35388 ft | 368 kts | 334° |
| 2026-04-16 20:38 | -52.72798 | -68.53410 | 35403 ft | 368 kts | 334° |
| 2026-04-16 20:39 | -52.68123 | -68.56836 | 35400 ft | 368 kts | 334° |
| 2026-04-16 20:39 | -52.63450 | -68.60253 | 35400 ft | 368 kts | 334° |
| 2026-04-16 20:40 | -52.58774 | -68.63664 | 35403 ft | 368 kts | 334° |
| 2026-04-16 20:40 | -52.54097 | -68.67069 | 35391 ft | 368 kts | 334° |
| 2026-04-16 20:41 | -52.49418 | -68.70468 | 35402 ft | 368 kts | 334° |
| 2026-04-16 20:41 | -52.44737 | -68.73860 | 35402 ft | 368 kts | 334° |
| 2026-04-16 20:42 | -52.40045 | -68.77252 | 35404 ft | 368 kts | 334° |
| 2026-04-16 20:42 | -52.35352 | -68.80637 | 35405 ft | 369 kts | 334° |
| 2026-04-16 20:43 | -52.30656 | -68.84015 | 35398 ft | 369 kts | 334° |
| 2026-04-16 20:43 | -52.25956 | -68.87390 | 35403 ft | 369 kts | 334° |
| 2026-04-16 20:44 | -52.21246 | -68.90763 | 35405 ft | 370 kts | 334° |
| 2026-04-16 20:44 | -52.16531 | -68.94132 | 35400 ft | 370 kts | 334° |
| 2026-04-16 20:45 | -52.11813 | -68.97495 | 35400 ft | 370 kts | 334° |
| 2026-04-16 20:45 | -52.07097 | -69.00850 | 35405 ft | 370 kts | 334° |
| 2026-04-16 20:46 | -52.02385 | -69.04193 | 35399 ft | 369 kts | 334° |
| 2026-04-16 20:46 | -51.97678 | -69.07526 | 35397 ft | 369 kts | 335° |
| 2026-04-16 20:47 | -51.93008 | -69.10825 | 35399 ft | 368 kts | 335° |
| 2026-04-16 20:47 | -51.88312 | -69.14134 | 35394 ft | 368 kts | 335° |
| 2026-04-16 20:48 | -51.83621 | -69.17433 | 35391 ft | 367 kts | 335° |
| 2026-04-16 20:48 | -51.78928 | -69.20726 | 35392 ft | 368 kts | 335° |
| 2026-04-16 20:49 | -51.74235 | -69.24012 | 35392 ft | 368 kts | 335° |
| 2026-04-16 20:49 | -51.69544 | -69.27289 | 35389 ft | 368 kts | 335° |
| 2026-04-16 20:50 | -51.64881 | -69.30662 | 35383 ft | 367 kts | 329° |
| 2026-04-16 20:50 | -51.60761 | -69.35497 | 35383 ft | 367 kts | 321° |
| 2026-04-16 20:51 | -51.57228 | -69.41459 | 35404 ft | 372 kts | 311° |
| 2026-04-16 20:51 | -51.54114 | -69.48110 | 35402 ft | 373 kts | 311° |
| 2026-04-16 20:52 | -51.51006 | -69.54773 | 35399 ft | 373 kts | 311° |
| 2026-04-16 20:52 | -51.47886 | -69.61416 | 35407 ft | 373 kts | 311° |
| 2026-04-16 20:53 | -51.44758 | -69.68042 | 35396 ft | 372 kts | 311° |
| 2026-04-16 20:53 | -51.41627 | -69.74651 | 35401 ft | 372 kts | 311° |
| 2026-04-16 20:54 | -51.38489 | -69.81254 | 35402 ft | 372 kts | 311° |
| 2026-04-16 20:54 | -51.35351 | -69.87843 | 35404 ft | 372 kts | 311° |
| 2026-04-16 20:55 | -51.32209 | -69.94423 | 35404 ft | 372 kts | 311° |
| 2026-04-16 20:55 | -51.30638 | -69.97706 | 35268 ft | 373 kts | 311° |
| 2026-04-16 20:55 | -51.29061 | -70.00998 | 34833 ft | 369 kts | 312° |
| 2026-04-16 20:56 | -51.27506 | -70.04243 | 34141 ft | 368 kts | 312° |
| 2026-04-16 20:56 | -51.25953 | -70.07478 | 33498 ft | 367 kts | 313° |
| 2026-04-16 20:56 | -51.24423 | -70.10657 | 32832 ft | 366 kts | 313° |
| 2026-04-16 20:56 | -51.22851 | -70.13920 | 32046 ft | 365 kts | 314° |
| 2026-04-16 20:57 | -51.21305 | -70.17129 | 31316 ft | 365 kts | 314° |
| 2026-04-16 20:57 | -51.19758 | -70.20334 | 30585 ft | 364 kts | 314° |
| 2026-04-16 20:57 | -51.18234 | -70.23488 | 29859 ft | 364 kts | 314° |
| 2026-04-16 20:57 | -51.16911 | -70.26222 | 29162 ft | 365 kts | 314° |
| 2026-04-16 20:58 | -51.15326 | -70.29494 | 28309 ft | 364 kts | 314° |
| 2026-04-16 20:58 | -51.13768 | -70.32709 | 27477 ft | 363 kts | 314° |
| 2026-04-16 20:58 | -51.12236 | -70.35867 | 26906 ft | 356 kts | 314° |
| 2026-04-16 20:58 | -51.10749 | -70.38932 | 26352 ft | 351 kts | 314° |
| 2026-04-16 20:59 | -51.09263 | -70.41986 | 25774 ft | 347 kts | 313° |
| 2026-04-16 20:59 | -51.07777 | -70.45038 | 25210 ft | 343 kts | 313° |
| 2026-04-16 20:59 | -51.06342 | -70.47977 | 24681 ft | 339 kts | 313° |
| 2026-04-16 20:59 | -51.04885 | -70.50881 | 24061 ft | 335 kts | 315° |
| 2026-04-16 21:00 | -51.03315 | -70.53687 | 23441 ft | 344 kts | 316° |
| 2026-04-16 21:00 | -51.01669 | -70.56519 | 22817 ft | 351 kts | 316° |
| 2026-04-16 21:00 | -51.00027 | -70.59341 | 22183 ft | 345 kts | 316° |
| 2026-04-16 21:00 | -50.98419 | -70.62123 | 21626 ft | 339 kts | 316° |
| 2026-04-16 21:01 | -50.96844 | -70.64858 | 21094 ft | 333 kts | 316° |
| 2026-04-16 21:01 | -50.95298 | -70.67549 | 20561 ft | 327 kts | 316° |
| 2026-04-16 21:01 | -50.93778 | -70.70196 | 20053 ft | 322 kts | 315° |
| 2026-04-16 21:01 | -50.92278 | -70.72808 | 19543 ft | 318 kts | 315° |
| 2026-04-16 21:02 | -50.90792 | -70.75390 | 19033 ft | 316 kts | 315° |
| 2026-04-16 21:02 | -50.89314 | -70.77957 | 18435 ft | 314 kts | 315° |
| 2026-04-16 21:02 | -50.87826 | -70.80529 | 17705 ft | 319 kts | 315° |
| 2026-04-16 21:03 | -50.84778 | -70.85787 | 16521 ft | 321 kts | 315° |
| 2026-04-16 21:03 | -50.83297 | -70.88345 | 16021 ft | 311 kts | 315° |
| 2026-04-16 21:03 | -50.81846 | -70.90849 | 15550 ft | 306 kts | 315° |
| 2026-04-16 21:03 | -50.80411 | -70.93320 | 15064 ft | 305 kts | 315° |
| 2026-04-16 21:04 | -50.78972 | -70.95793 | 14551 ft | 306 kts | 315° |
| 2026-04-16 21:04 | -50.77535 | -70.98262 | 14059 ft | 307 kts | 314° |
| 2026-04-16 21:04 | -50.76066 | -71.00782 | 13561 ft | 317 kts | 314° |
| 2026-04-16 21:04 | -50.74556 | -71.03370 | 13013 ft | 320 kts | 314° |
| 2026-04-16 21:05 | -50.73053 | -71.05946 | 12467 ft | 317 kts | 314° |
| 2026-04-16 21:05 | -50.72290 | -71.07253 | 12203 ft | 314 kts | 314° |
| 2026-04-16 21:05 | -50.70791 | -71.09821 | 11710 ft | 309 kts | 314° |
| 2026-04-16 21:05 | -50.69340 | -71.12302 | 11180 ft | 306 kts | 314° |
| 2026-04-16 21:06 | -50.67901 | -71.14760 | 10676 ft | 304 kts | 313° |
| 2026-04-16 21:06 | -50.66469 | -71.17202 | 10402 ft | 300 kts | 313° |
| 2026-04-16 21:06 | -50.65091 | -71.19552 | 10260 ft | 293 kts | 313° |
| 2026-04-16 21:06 | -50.63711 | -71.21902 | 10127 ft | 293 kts | 313° |
| 2026-04-16 21:07 | -50.62345 | -71.24227 | 9996 ft | 285 kts | 313° |
| 2026-04-16 21:07 | -50.61022 | -71.26478 | 9860 ft | 275 kts | 313° |
| 2026-04-16 21:07 | -50.59748 | -71.28643 | 9752 ft | 265 kts | 313° |
| 2026-04-16 21:07 | -50.58517 | -71.30733 | 9643 ft | 255 kts | 313° |
| 2026-04-16 21:08 | -50.57329 | -71.32748 | 9521 ft | 247 kts | 313° |
| 2026-04-16 21:08 | -50.56182 | -71.34690 | 9416 ft | 238 kts | 313° |
| 2026-04-16 21:08 | -50.55073 | -71.36566 | 9144 ft | 237 kts | 313° |
| 2026-04-16 21:08 | -50.53956 | -71.38453 | 8777 ft | 236 kts | 313° |
| 2026-04-16 21:09 | -50.52792 | -71.40414 | 8294 ft | 243 kts | 313° |
| 2026-04-16 21:09 | -50.51657 | -71.42333 | 7958 ft | 243 kts | 313° |
| 2026-04-16 21:09 | -50.50509 | -71.44271 | 7664 ft | 242 kts | 313° |
| 2026-04-16 21:09 | -50.49368 | -71.46197 | 7390 ft | 240 kts | 313° |
| 2026-04-16 21:10 | -50.48234 | -71.48108 | 7123 ft | 238 kts | 313° |
| 2026-04-16 21:10 | -50.47108 | -71.50004 | 6856 ft | 237 kts | 313° |
| 2026-04-16 21:10 | -50.45986 | -71.51894 | 6591 ft | 236 kts | 313° |
| 2026-04-16 21:10 | -50.44871 | -71.53770 | 6395 ft | 232 kts | 313° |
| 2026-04-16 21:11 | -50.43789 | -71.55588 | 6301 ft | 224 kts | 313° |
| 2026-04-16 21:11 | -50.42734 | -71.57359 | 6119 ft | 225 kts | 314° |
| 2026-04-16 21:11 | -50.41663 | -71.59153 | 6033 ft | 224 kts | 314° |
| 2026-04-16 21:11 | -50.40602 | -71.60934 | 5907 ft | 224 kts | 314° |
| 2026-04-16 21:12 | -50.39541 | -71.62712 | 5641 ft | 223 kts | 314° |
| 2026-04-16 21:12 | -50.38482 | -71.64483 | 5377 ft | 222 kts | 313° |
| 2026-04-16 21:12 | -50.37439 | -71.66228 | 5259 ft | 215 kts | 313° |
| 2026-04-16 21:12 | -50.36427 | -71.67919 | 5262 ft | 212 kts | 313° |
| 2026-04-16 21:13 | -50.35408 | -71.69580 | 5241 ft | 211 kts | 319° |
| 2026-04-16 21:13 | -50.34131 | -71.70719 | 5220 ft | 213 kts | 335° |
| 2026-04-16 21:13 | -50.32754 | -71.71689 | 4935 ft | 218 kts | 334° |
| 2026-04-16 21:13 | -50.31379 | -71.72672 | 4689 ft | 217 kts | 334° |
| 2026-04-16 21:14 | -50.30007 | -71.73665 | 4442 ft | 218 kts | 334° |
| 2026-04-16 21:14 | -50.28635 | -71.74660 | 4187 ft | 218 kts | 334° |
| 2026-04-16 21:14 | -50.27302 | -71.75776 | 3912 ft | 217 kts | 319° |
| 2026-04-16 21:14 | -50.26589 | -71.77790 | 3658 ft | 217 kts | 277° |
| 2026-04-16 21:15 | -50.26638 | -71.80132 | 3473 ft | 213 kts | 270° |
| 2026-04-16 21:15 | -50.26704 | -71.82382 | 3319 ft | 203 kts | 269° |
| 2026-04-16 21:15 | -50.26811 | -71.84552 | 3063 ft | 198 kts | 268° |
| 2026-04-16 21:15 | -50.26932 | -71.86660 | 2805 ft | 193 kts | 266° |
| 2026-04-16 21:16 | -50.27049 | -71.88667 | 2556 ft | 182 kts | 267° |
| 2026-04-16 21:16 | -50.27159 | -71.90561 | 2324 ft | 169 kts | 267° |
| 2026-04-16 21:16 | -50.27262 | -71.92341 | 2087 ft | 160 kts | 266° |
| 2026-04-16 21:16 | -50.27358 | -71.94040 | 1888 ft | 149 kts | 266° |
| 2026-04-16 21:17 | -50.27451 | -71.95647 | 1755 ft | 152 kts | 266° |
| 2026-04-16 21:17 | -50.27544 | -71.97309 | 1452 ft | 152 kts | 264° |
| 2026-04-16 21:17 | -50.27627 | -71.98932 | 1141 ft | 149 kts | 264° |
| 2026-04-16 21:17 | -50.27718 | -72.00449 | 1043 ft | 137 kts | 261° |
| 2026-04-16 21:18 | -50.27824 | -72.01946 | 874 ft | 140 kts | 261° |
| 2026-04-16 21:18 | -50.27906 | -72.03473 | 692 ft | 140 kts | 261° |
| 2026-04-16 21:18 | -50.27998 | -72.04904 | 650 ft | 118 kts | 263° |
| 2026-04-16 21:18 | -50.28058 | -72.05946 | 651 ft | 64 kts | 264° |
| 2026-04-16 21:19 | -50.28117 | -72.06221 | 654 ft | 23 kts | 233° |
| 2026-04-16 21:19 | -50.28202 | -72.06383 | 653 ft | 18 kts | 217° |
| 2026-04-16 21:19 | -50.28305 | -72.06340 | 654 ft | 17 kts | 118° |
| 2026-04-16 21:19 | -50.28304 | -72.06162 | 652 ft | 16 kts | 85° |
| 2026-04-16 21:20 | -50.28298 | -72.06046 | 654 ft | 16 kts | 85° |
| 2026-04-16 21:20 | -50.28289 | -72.05878 | 651 ft | 15 kts | 85° |
| 2026-04-16 21:20 | -50.28278 | -72.05716 | 650 ft | 15 kts | 84° |
| 2026-04-16 21:20 | -50.28271 | -72.05566 | 650 ft | 10 kts | 103° |
| 2026-04-16 21:21 | -50.28307 | -72.05510 | 649 ft | 0 kts | 146° |
| 2026-04-16 21:21 | -50.28311 | -72.05507 | 649 ft | 2 kts | 147° |
| 2026-04-16 21:21 | -50.28325 | -72.05493 | 650 ft | 3 kts | 148° |
| 2026-04-16 21:21 | -50.28341 | -72.05479 | 650 ft | 3 kts | 151° |
| 2026-04-16 21:22 | -50.28344 | -72.05476 | 649 ft | 0 kts | 151° |